Tiempo atmosférico en la estación meteorológica de La Palma Aeropuerto, Santa Cruz de Tenerife (33 m.)



Fecha
DESCASC
Temp. máxima en grados centígrados (hora)
DESCASC
Temp. mínima en grados centígrados (hora)
DESCASC
Temp. media en grados centígrados
DESCASC
Racha de viento máxima en m/sg (hora)
DESCASC
Velocidad máxima media en intervalos de 10 minutos(hora)
DESCASC
Precipitaciones diarias en mm
DESCASC
Precipitaciones de 00:00 a 06:00 en mm
DESCASC
Precipitaciones de 06:00 a 12:00 en mm
DESCASC
Precipitaciones de 12:00 a 18:00 en mm
DESCASC
Precipitaciones de 18:00 a 24:00 en mm
DESCASC
30-11-2020 22.6 (15:20) 15.9 (06:40) 19.3 16.39 (15:10) 6.67 (14:50) 3.1 1.9 0.1 0 1.1
29-11-2020 21.9 (12:50) 15.9 (00:00) 18.9 12.5 (15:30) 7.22 (15:30) 0.6 0 0 0 0.6
28-11-2020 22.8 (11:10) 16.7 (00:00) 19.8 8.33 (11:40) 5.28 (11:20) 0 0 0 0 0
27-11-2020 22.4 (13:40) 14.5 (00:00) 18.4 12.78 (15:40) 7.22 (04:20) 0 0 0 0 0
26-11-2020 21.9 (12:10) 15.1 (00:00) 18.5 22.22 (20:00) 14.17 (15:50) 0 0 0 0 0
25-11-2020 -- (--) -- (--) -- -- (--) -- (--) -- 0 -- -- 0
24-11-2020 25.3 (13:40) 18.9 (00:00) 22.1 6.11 (18:10) 4.72 (17:50) 0 0 0 0 0
23-11-2020 24.4 (13:20) 19.3 (00:00) 21.8 6.67 (07:10) 5 (06:50) 0 0 0 0 0
22-11-2020 25.3 (11:50) 20.4 (00:00) 22.8 7.22 (04:50) 5.28 (05:10) 0 0 0 0 0
21-11-2020 28.5 (13:50) 19 (00:00) 23.8 9.72 (14:40) 6.67 (15:00) 0 0 0 0 0
20-11-2020 24.1 (12:10) 18.7 (00:00) 21.4 6.67 (10:50) 5.28 (12:20) 0 0 0 0 0
19-11-2020 22.7 (14:40) 19.2 (00:00) 21 11.39 (06:30) 9.17 (06:40) 0.7 0 0.7 0 0
18-11-2020 24.8 (09:30) 19 (00:00) 21.9 16.94 (14:30) 12.22 (16:30) 0 0 0 0 0
17-11-2020 27.7 (10:40) 19 (00:00) 23.4 4.72 (21:30) 3.61 (21:40) -- 0 0 -- 0
16-11-2020 24.9 (11:00) 19.6 (00:00) 22.3 7.78 (02:00) 6.39 (02:00) -- 0 0 -- 0
15-11-2020 28.2 (13:00) 20.3 (00:00) 24.3 14.44 (00:50) 6.67 (01:20) 0 0 0 0 0
14-11-2020 28.7 (12:30) 21.7 (00:00) 25.2 17.5 (15:30) 10 (15:30) 0 0 0 0 0
13-11-2020 27.4 (14:50) 20 (00:00) 23.7 18.06 (13:10) 12.5 (13:20) 0 0 0 0 0
12-11-2020 23.5 (12:10) 18.9 (00:00) 21.2 4.17 (08:10) 3.06 (13:10) 0 0 0 0 0
11-11-2020 22.9 (11:50) 19.7 (00:00) 21.3 8.33 (03:00) 5.56 (03:00) 0 0 0 0 0
10-11-2020 22.7 (10:20) 20 (00:00) 21.4 8.89 (19:20) 5.83 (01:10) 0 0 0 0 0
09-11-2020 23.1 (11:10) 18.2 (00:00) 20.7 11.67 (09:10) 9.44 (09:10) 1.9 0 1.1 0.8 0
08-11-2020 23.5 (13:30) 17.5 (00:00) 20.5 7.78 (17:30) 6.11 (17:30) 0 0 0 0 0
07-11-2020 24.1 (11:30) 17.8 (00:00) 20.9 7.78 (05:20) 5.28 (05:30) 0 0 0 0 0
06-11-2020 24.2 (15:20) 16.7 (00:00) 20.5 12.78 (07:40) 6.39 (16:20) 12.6 10.6 2 0 0
05-11-2020 22.1 (14:40) 16.4 (00:00) 19.3 9.72 (20:00) 5 (17:00) 0 0 0 0 0
04-11-2020 22.3 (01:40) 17.6 (00:00) 19.9 15.28 (13:50) 12.22 (15:10) 15.1 1.5 4.4 8.7 0.5
03-11-2020 25 (13:30) 21.1 (00:00) 23.1 11.67 (10:30) 9.17 (17:10) 0.9 0.1 0.1 0 0.7
02-11-2020 25.7 (15:30) 20.2 (00:00) 23 10.28 (16:00) 8.06 (16:10) 0 0 0 0 0

Gráficas

Temp. máximas Temp. mínimas Temp. medias Precipitaciones Rachas de viento máximas Velocidades máximas media en intervalos de 10 minutos

Datos horarios

Fecha y hora oficial Temperatura (ºC) Velocidad del viento (km/h) Dirección del viento Racha (km/h) Dirección de racha Precipitación (mm) Presión (hPa) Tendencia (hPa) Humedad (%)
2020-12-01 23:00:00 20.7 21 Oeste 45 Oeste 0 1007.9 -- 52
2020-12-01 22:00:00 20.4 18 Oeste 37 Sudoeste 0 1007.8 -- 55
2020-12-01 21:00:00 19.4 10 Sudoeste 22 Sudoeste 0 1007.7 -- 64
2020-12-01 20:00:00 18 6 Sudeste 26 Oeste 1.5 1007.5 -- 74
2020-12-01 19:00:00 21.1 13 Oeste 32 Oeste 0 1006.7 -- 51
2020-12-01 18:00:00 21.4 12 Sudoeste 33 Sudoeste 0 1006.2 -- 48
2020-12-01 17:00:00 22 9 Sudoeste 37 Oeste 0 1005.9 -- 49
2020-12-01 16:00:00 21.1 13 Noroeste 30 Norte 0 1005.6 -- 65
2020-12-01 15:00:00 18.6 12 Norte 30 Noroeste 0.6 1006.1 -- 78
2020-12-01 14:00:00 19.2 5 Sudeste 41 Sur 0.1 1006.7 -- 66
2020-12-01 13:00:00 21.5 30 Sudeste 52 Sudeste 0.2 1006.3 -- 67
2020-12-01 12:00:00 21.6 35 Sur 50 Sur 0 1007.1 -- 66
2020-12-01 11:00:00 22.4 23 Sudeste 39 Sur 0 1007.7 -- 60
2020-12-01 10:00:00 22.6 26 Sur 41 Sudeste 0 1007.5 -- 57
2020-12-01 09:00:00 22 6 Sudeste 22 Sur 0 1007 -- 52
2020-12-01 08:00:00 19.2 7 Sudoeste 21 Sudoeste 0 1006.8 -- 59
2020-12-01 07:00:00 19 8 Sudoeste 26 Sur 0 1006.2 -- 61
2020-12-01 06:00:00 20.5 12 Oeste 24 Oeste 0 1006.1 -- 52
2020-12-01 05:00:00 19.9 6 Sudoeste 30 Oeste 0 1006.2 -- 54
2020-12-01 04:00:00 19.8 15 Sudoeste 26 Sudoeste 0 1006.4 -- 55
2020-12-01 03:00:00 19.7 14 Oeste 32 Sudoeste 0 1006.5 -- 55
2020-12-01 02:00:00 20.1 12 Sur 45 Sudoeste 0.7 1006.6 -- 55
2020-12-01 01:00:00 19.4 17 Oeste 50 Sudoeste 0.5 1006.8 -- 59
2020-12-01 00:00:00 19.2 13 Oeste 24 Oeste 0.2 1006.8 -- 63
2020-11-30 23:00:00 18.6 8 Sur 24 Este 0.2 1006.7 -- 69
2020-11-30 22:00:00 18.3 12 Sur 28 Oeste 0.4 1006.4 -- 72
2020-11-30 21:00:00 20.6 10 Sudoeste 37 Sudoeste 0.3 1005.8 -- 54
2020-11-30 20:00:00 20.8 15 Sur 30 Sur 0 1005.3 -- 52
2020-11-30 19:00:00 20.5 10 Sur 41 Sudoeste 0 1005 -- 49
2020-11-30 18:00:00 20.8 18 Sudeste 33 Sudoeste 0 1004.6 -- 49
2020-11-30 17:00:00 21.1 11 Sudoeste 39 Sudoeste 0 1004 -- 48
2020-11-30 16:00:00 21.8 15 Sudoeste 59 Sudoeste 0 1004.2 -- 47
2020-11-30 15:00:00 22.2 22 Sur 52 Este 0 1003.9 -- 46
2020-11-30 14:00:00 20.6 22 Sudoeste 48 Oeste 0 1004.2 -- 55
2020-11-30 13:00:00 20.9 18 Sudoeste 42 Sudoeste 0 1004.8 -- 50
2020-11-30 12:00:00 20.7 6 Oeste 32 Oeste 0 1005.4 -- 50
2020-11-30 11:00:00 19.8 12 Sudoeste 28 Oeste 0 1005.5 -- 52
2020-11-30 10:00:00 19.7 7 Este 30 Oeste 0 1005.3 -- 57
2020-11-30 09:00:00 19 9 Sudeste 30 Este 0 1004.9 -- 59
2020-11-30 08:00:00 17.3 8 Sudoeste 17 Sur 0 1004.5 -- 62
2020-11-30 07:00:00 17.4 9 Sudoeste 26 Sur 0.1 1004 -- 66
2020-11-30 06:00:00 18.8 12 Sur 30 Oeste 0.2 1003.6 -- 57
2020-11-30 05:00:00 18.2 6 Sudoeste 26 Sudeste 0 1003.4 -- 60
2020-11-30 04:00:00 19.1 12 Sudoeste 28 Nordeste 0 1003.9 -- 55
2020-11-30 03:00:00 17 6 Norte 18 Sudeste 0 1004.2 -- 71
2020-11-30 02:00:00 16.8 5 Noroeste 28 Sudoeste 0.7 1004.9 -- 73
2020-11-30 01:00:00 17.8 13 Este 30 Norte 1 1005 -- 68
2020-11-30 00:00:00 18.6 12 Sur 28 Este 0.4 1005.5 -- 59
2020-11-29 23:00:00 17.8 6 Sudoeste 30 Este 0.1 1005.6 -- 64
2020-11-29 22:00:00 17.7 6 Oeste 33 Sudoeste 0.1 1005.9 -- 65
2020-11-29 21:00:00 17.7 8 Sudoeste 35 Sudoeste 0 1005.5 -- 66
2020-11-29 20:00:00 18.8 10 Sur 21 Sudeste 0 1005.4 -- 59
2020-11-29 19:00:00 19.3 9 Sudoeste 26 Sudoeste 0 1005.5 -- 49
2020-11-29 18:00:00 19.8 13 Sudoeste 22 Sudoeste 0 1005.8 -- 46
2020-11-29 17:00:00 20.6 6 Nordeste 26 Este 0 1005.8 -- 44
2020-11-29 16:00:00 20.5 15 Este 45 Este 0 1005.7 -- 52
2020-11-29 15:00:00 20.6 17 Este 26 Este 0 1006.1 -- 53
2020-11-29 14:00:00 20.6 14 Sudeste 24 Sudeste 0 1007 -- 51
2020-11-29 13:00:00 21.6 16 Sudeste 26 Sudeste 0 1007.9 -- 49
2020-11-29 12:00:00 21.4 13 Este 28 Este 0 1008.9 -- 50
2020-11-29 11:00:00 20.5 20 Este 35 Este 0 1009.4 -- 55
2020-11-29 10:00:00 20.3 13 Este 22 Este 0 1009.3 -- 59
2020-11-29 09:00:00 19.2 6 Sudeste 32 Nordeste 0 1008.9 -- 61
2020-11-29 08:00:00 18 0 Calma 15 Sudoeste 0 1008.7 -- 73
2020-11-29 07:00:00 18.7 11 Este 26 Este 0 1008.5 -- 67
2020-11-29 06:00:00 17.7 13 Sudoeste 18 Sudoeste 0 1008.6 -- 77
2020-11-29 05:00:00 17.2 9 Sur 18 Sudoeste 0 1008.8 -- 76
2020-11-29 04:00:00 16 9 Sudoeste 18 Sudoeste 0 1009.2 -- 79
2020-11-29 03:00:00 17.7 9 Norte 17 Nordeste 0 1010 -- 84
2020-11-29 02:00:00 16.8 7 Sudoeste 13 Sur 0 1010.4 -- 84
2020-11-29 01:00:00 17 10 Noroeste 32 Norte 0 1011.2 -- 87
2020-11-29 00:00:00 18.2 10 Oeste 15 Oeste 0 1011.4 -- 67
2020-11-28 23:00:00 18.5 10 Oeste 15 Oeste 0 1011.1 -- 65
2020-11-28 22:00:00 18.3 11 Oeste 21 Sudoeste 0 1011.4 -- 66
2020-11-28 21:00:00 18.5 14 Sudoeste 18 Sudoeste 0 1011.3 -- 65
2020-11-28 20:00:00 18.8 13 Sudoeste 22 Sudoeste 0 1011.1 -- 65
2020-11-28 19:00:00 19 13 Sudoeste 28 Sudoeste 0 1010.8 -- 65
2020-11-28 18:00:00 19.5 11 Sudoeste 13 Sudoeste 0 1010.6 -- 65
2020-11-28 17:00:00 20.9 5 Este 13 Nordeste 0 1010.6 -- 60
2020-11-28 16:00:00 21.4 5 Este 13 Este 0 1010.6 -- 59
2020-11-28 15:00:00 21.8 6 Este 17 Sudeste 0 1010.7 -- 59
2020-11-28 14:00:00 21.5 9 Sudeste 24 Este 0 1011.3 -- 59
2020-11-28 13:00:00 22 14 Sudeste 26 Sudeste 0 1012.1 -- 59
2020-11-28 12:00:00 22.2 18 Sudeste 30 Sudeste 0 1012.8 -- 56
2020-11-28 11:00:00 22.2 15 Sudeste 26 Sudeste 0 1013.1 -- 58
2020-11-28 10:00:00 21.8 14 Sudeste 22 Sur 0 1013 -- 61
2020-11-28 09:00:00 19.6 9 Sur 18 Sudoeste 0 1012.5 -- 64
2020-11-28 08:00:00 17.3 13 Sudoeste 15 Sudoeste 0 1012.2 -- 65
2020-11-28 07:00:00 17.3 12 Oeste 17 Sudoeste 0 1011.9 -- 67
2020-11-28 06:00:00 17 8 Sudoeste 17 Sudoeste 0 1011.8 -- 67
2020-11-28 05:00:00 17.3 13 Sudoeste 17 Oeste 0 1011.5 -- 65
2020-11-28 04:00:00 17 8 Oeste 13 Oeste 0 1011.6 -- 67
2020-11-28 03:00:00 17.5 9 Oeste 17 Oeste 0 1011.9 -- 66
2020-11-28 02:00:00 17.9 7 Sudoeste 15 Oeste 0 1012.2 -- 58
2020-11-28 01:00:00 18.1 11 Oeste 18 Este 0 1012.5 -- 65
2020-11-28 00:00:00 17.7 10 Sudoeste 18 Sudoeste 0 1012.7 -- 65
2020-11-27 23:00:00 17.9 8 Oeste 21 Oeste 0 1012.5 -- 63
2020-11-27 22:00:00 18.3 17 Oeste 22 Oeste 0 1012.1 -- 59
2020-11-27 21:00:00 17.6 9 Oeste 17 Sudoeste 0 1011.9 -- 63
2020-11-27 20:00:00 18.8 5 Noroeste 15 Nordeste 0 1011.4 -- 63
2020-11-27 19:00:00 18.7 9 Sudoeste 21 Oeste 0 1010.9 -- 56
2020-11-27 18:00:00 19.8 10 Sudoeste 18 Sudoeste 0 1010.8 -- 54
2020-11-27 17:00:00 21.6 8 Sur 28 Sur 0 1010.5 -- 48
2020-11-27 16:00:00 21.4 13 Sudeste 46 Norte 0 1010.3 -- 52
2020-11-27 15:00:00 21.5 10 Este 22 Sudeste 0 1010.4 -- 47
2020-11-27 14:00:00 22.1 7 Sur 26 Sur 0 1010.7 -- 45
2020-11-27 13:00:00 21.8 14 Sudeste 28 Sudeste 0 1011.6 -- 47
2020-11-27 12:00:00 21.4 16 Sudeste 32 Sur 0 1011.9 -- 48
2020-11-27 11:00:00 21.1 9 Sudeste 22 Este 0 1012.2 -- 48
2020-11-27 10:00:00 20.6 8 Sudeste 13 Este 0 1012.1 -- 51
2020-11-27 09:00:00 17.7 10 Sur 18 Sudoeste 0 1011.4 -- 57
2020-11-27 08:00:00 14.9 14 Sudoeste 21 Sudoeste 0 1010.9 -- 63
2020-11-27 07:00:00 15.7 10 Oeste 21 Oeste 0 1010.3 -- 60
2020-11-27 06:00:00 15.4 13 Sudoeste 21 Oeste 0 1009.8 -- 64
2020-11-27 05:00:00 15.6 11 Noroeste 42 Norte 0 1009.9 -- 65
2020-11-27 04:00:00 17.5 7 Sur 24 Oeste 0 1009.8 -- 52
2020-11-27 03:00:00 16.8 14 Oeste 22 Noroeste 0 1010 -- 61
2020-11-27 02:00:00 16.3 9 Oeste 26 Oeste 0 1010 -- 62
2020-11-27 01:00:00 16.6 8 Noroeste 32 Norte 0 1010.5 -- 66
2020-11-27 00:00:00 16.6 12 Oeste 65 Norte 0 1010.5 -- 66
2020-11-26 23:00:00 17.9 38 Norte 55 Norte 0 1010.5 -- 66
2020-11-26 22:00:00 18 9 Noroeste 41 Noroeste 0 1010.4 -- 54
2020-11-26 21:00:00 18.2 17 Oeste 59 Norte 0 1010.1 -- 51
2020-11-26 20:00:00 17.6 46 Norte 80 Norte 0 1009.3 -- 68
2020-11-26 19:00:00 18.5 28 Noroeste 78 Nordeste 0 1008.9 -- 57
2020-11-26 18:00:00 19 28 Noroeste 61 Norte 0 1008.5 -- 61
2020-11-26 17:00:00 19.6 37 Norte 65 Norte 0 1008.5 -- 63
2020-11-26 16:00:00 19.9 41 Norte 67 Norte 0 1008.3 -- 64
2020-11-26 15:00:00 20.4 48 Norte 74 Norte 0 1008.9 -- 62
2020-11-26 14:00:00 21 5 Norte 59 Norte 0 1009.6 -- 52
2020-11-26 13:00:00 20.8 22 Norte 52 Norte 0 1010.3 -- 57
2020-11-26 12:00:00 21.4 14 Nordeste 30 Norte 0 1011.3 -- 50
2020-11-26 11:00:00 21.3 13 Sudeste 18 Sudeste 0 1012.2 -- 48
2020-11-26 10:00:00 20.7 8 Sudeste 13 Sudeste 0 1012.1 -- 50
2020-11-26 09:00:00 18.3 4 Oeste 18 Oeste 0 1012.2 -- 60
2020-11-26 08:00:00 15.7 12 Sudoeste 18 Sudoeste 0 1012 -- 67
2020-11-26 07:00:00 15.8 9 Sudoeste 22 Sudoeste 0 1012 -- 66
2020-11-26 06:00:00 15.6 9 Oeste 13 Sudoeste 0 1012 -- 66
2020-11-26 05:00:00 16.3 15 Sudoeste 22 Oeste 0 1011.9 -- 60
2020-11-26 04:00:00 16.3 10 Sudoeste 17 Sudoeste 0 1012.9 -- 60
2020-11-26 03:00:00 16.8 11 Sudoeste 15 Sudoeste 0 1013 -- 59
2020-11-26 02:00:00 16.7 9 Sudoeste 17 Sudoeste 0 1013.7 -- 58
2020-11-26 01:00:00 16.5 7 Oeste 22 Sudoeste 0 1014.4 -- 59
2020-11-26 00:00:00 17.4 9 Oeste 33 Nordeste 0 1014.6 -- 55
2020-11-25 23:00:00 17.9 4 Este 21 Sur 0 1015.2 -- 58
2020-11-25 22:00:00 18.8 24 Noroeste 61 Norte 0 1015 -- 54
2020-11-25 21:00:00 18.6 15 Noroeste 74 Norte 0 1015 -- 58
2020-11-25 20:00:00 19.1 51 Norte 68 Norte 0 1014.7 -- 65
2020-11-25 19:00:00 19.2 38 Norte 67 Norte 0 1014.2 -- 70
2020-11-25 18:00:00 19.1 48 Norte 72 Norte 0 1014.3 -- 79
2020-11-25 17:00:00 20 43 Norte 68 Norte 0 1014.2 -- 73
2020-11-25 16:00:00 20.8 44 Norte 72 Norte 0 1014.1 -- 75
2020-11-25 15:00:00 21.1 48 Norte 76 Norte 0 1014.1 -- 77
2020-11-25 14:00:00 22.8 42 Norte -- -- -- 1014.3 -- 63
2020-11-25 13:00:00 -- -- -- -- -- -- -- -- --
2020-11-25 12:00:00 -- -- -- -- -- -- -- -- --
2020-11-25 11:00:00 -- -- -- -- -- -- -- -- --
2020-11-25 10:00:00 -- -- -- -- -- -- -- -- --
2020-11-25 09:00:00 -- -- -- -- -- -- -- -- --
2020-11-25 08:00:00 19.1 8 Oeste 26 Oeste 0 1016.8 -- 61
2020-11-25 07:00:00 19.7 9 Noroeste 21 Noroeste 0 1016.5 -- 63
2020-11-25 06:00:00 19.1 6 Oeste 17 Oeste 0 1016.4 -- 64
2020-11-25 05:00:00 18.9 10 Sudoeste 15 Sudoeste 0 1016.5 -- 68
2020-11-25 04:00:00 18.9 8 Oeste 18 Noroeste 0 1016.8 -- 71
2020-11-25 03:00:00 19.2 8 Oeste 17 Sudoeste 0 1017.3 -- 70
2020-11-25 02:00:00 19.2 6 Sudoeste 13 Sudoeste 0 1017.5 -- 73
2020-11-25 01:00:00 18.8 9 Sudoeste 15 Sudoeste 0 1017.8 -- 70
2020-11-25 00:00:00 19.4 9 Sudoeste 13 Sudoeste 0 1018 -- 73
2020-11-24 23:00:00 20.1 9 Noroeste 15 Oeste 0 1018.2 -- 59
2020-11-24 22:00:00 20.2 10 Oeste 15 Noroeste 0 1018.4 -- 70
2020-11-24 21:00:00 20.4 9 Oeste 13 Noroeste 0 1018 -- 60
2020-11-24 20:00:00 20.1 8 Oeste 13 Oeste 0 1017.5 -- 63
2020-11-24 19:00:00 21.2 5 Oeste 22 Nordeste 0 1017.2 -- 75
2020-11-24 18:00:00 22.3 16 Norte 21 Norte 0 1016.6 -- 80
2020-11-24 17:00:00 23.3 10 Norte 13 Norte 0 1016.5 -- 72
2020-11-24 16:00:00 23.6 9 Norte 11 Norte 0 1016.1 -- 70
2020-11-24 15:00:00 23.3 5 Nordeste 13 Este 0 1016.3 -- 71
2020-11-24 14:00:00 25.1 9 Este 13 Este 0 1016.7 -- 59
2020-11-24 13:00:00 23.7 3 Nordeste 9 Este 0 1017.4 -- 71
2020-11-24 12:00:00 23.8 4 Nordeste 8 Nordeste 0 1018.1 -- 70
2020-11-24 11:00:00 23.8 4 Nordeste 11 Norte 0 1018.5 -- 67
2020-11-24 10:00:00 23.6 8 Norte 13 Norte 0 1018 -- 70
2020-11-24 09:00:00 20.5 9 Oeste 13 Oeste 0 1017.6 -- 72
2020-11-24 08:00:00 20.1 10 Oeste 18 Noroeste 0 1017 -- 58
2020-11-24 07:00:00 19.4 6 Sudoeste 13 Oeste 0 1016.4 -- 48
2020-11-24 06:00:00 19.7 10 Oeste 17 Oeste 0 1015.9 -- 49
2020-11-24 05:00:00 20.3 2 Noroeste 17 Oeste 0 1015.9 -- 32
2020-11-24 04:00:00 21.3 11 Sudoeste 18 Sudoeste 0 1016.1 -- 30
2020-11-24 03:00:00 21 5 Oeste 15 Oeste 0 1016.4 -- 33
2020-11-24 02:00:00 21.6 9 Oeste 17 Oeste 0 1016.5 -- 32
2020-11-24 01:00:00 21.1 3 Oeste 11 Oeste 0 1016.8 -- 36
2020-11-24 00:00:00 20.4 7 Oeste 11 Oeste 0 1017.1 -- 38
2020-11-23 23:00:00 20.7 6 Oeste 11 Sudoeste 0 1017 -- 38
2020-11-23 22:00:00 20.7 6 Oeste 13 Oeste 0 1017.1 -- 39
2020-11-23 21:00:00 20.9 6 Oeste 11 Sudoeste 0 1016.7 -- 39
2020-11-23 20:00:00 21.2 5 Sudoeste 11 Oeste 0 1016.2 -- 43
2020-11-23 19:00:00 21.3 9 Oeste 13 Oeste 0 1015.7 -- 54
2020-11-23 18:00:00 22.6 3 Oeste 21 Sudoeste 0 1015.3 -- 69
2020-11-23 17:00:00 23.1 0 Calma 8 Este 0 1015.1 -- 74
2020-11-23 16:00:00 23.1 4 Nordeste 9 Nordeste 0 1014.9 -- 73
2020-11-23 15:00:00 23.1 5 Nordeste 13 Norte 0 1014.8 -- 74
2020-11-23 14:00:00 23.7 8 Nordeste 15 Norte 0 1015.5 -- 72
2020-11-23 13:00:00 23.8 10 Nordeste 17 Nordeste 0 1016.4 -- 72
2020-11-23 12:00:00 23.9 13 Nordeste 18 Nordeste 0 1017.2 -- 72
2020-11-23 11:00:00 23.4 12 Nordeste 21 Nordeste 0 1017.7 -- 73
2020-11-23 10:00:00 22.5 10 Norte 21 Noroeste 0 1017.6 -- 76
2020-11-23 09:00:00 21 13 Oeste 22 Oeste 0 1016.8 -- 73
2020-11-23 08:00:00 20 17 Oeste 24 Oeste 0 1016 -- 69
2020-11-23 07:00:00 20 18 Oeste 22 Oeste 0 1015.4 -- 65
2020-11-23 06:00:00 19.6 15 Oeste 21 Oeste 0 1015.1 -- 62
2020-11-23 05:00:00 19.7 14 Oeste 21 Oeste 0 1015.2 -- 52
2020-11-23 04:00:00 19.6 10 Oeste 17 Oeste 0 1015.2 -- 57
2020-11-23 03:00:00 19.8 14 Oeste 21 Oeste 0 1015.4 -- 68
2020-11-23 02:00:00 20.2 12 Oeste 21 Oeste 0 1015.7 -- 64
2020-11-23 01:00:00 20.4 14 Oeste 18 Oeste 0 1016.1 -- 75
2020-11-23 00:00:00 20.8 13 Oeste 18 Oeste 0 1016.3 -- 72
2020-11-22 23:00:00 21 13 Oeste 21 Oeste 0 1016.4 -- 71
2020-11-22 22:00:00 21.2 14 Oeste 18 Oeste 0 1016.3 -- 69
2020-11-22 21:00:00 21.5 12 Oeste 18 Oeste 0 1015.9 -- 73
2020-11-22 20:00:00 22.1 10 Norte 18 Norte 0 1015.6 -- 81
2020-11-22 19:00:00 22.1 16 Nordeste 24 Nordeste 0 1014.9 -- 82
2020-11-22 18:00:00 22.3 17 Nordeste 22 Nordeste 0 1014.7 -- 82
2020-11-22 17:00:00 22.6 14 Nordeste 21 Nordeste 0 1014.5 -- 81
2020-11-22 16:00:00 22.8 17 Norte 24 Nordeste 0 1014.2 -- 79
2020-11-22 15:00:00 23.5 15 Norte 22 Norte 0 1014.3 -- 75
2020-11-22 14:00:00 24.4 17 Norte 22 Nordeste 0 1014.5 -- 69
2020-11-22 13:00:00 25.1 14 Norte 18 Norte 0 1015.2 -- 62
2020-11-22 12:00:00 25 12 Norte 18 Norte 0 1016.1 -- 60
2020-11-22 11:00:00 24 12 Norte 21 Norte 0 1016.6 -- 59
2020-11-22 10:00:00 23.9 13 Norte 22 Noroeste 0 1016.3 -- 60
2020-11-22 09:00:00 21.6 14 Oeste 24 Oeste 0 1015.8 -- 61
2020-11-22 08:00:00 21 18 Oeste 24 Oeste 0 1015.1 -- 61
2020-11-22 07:00:00 20.9 18 Oeste 24 Oeste 0 1014.5 -- 65
2020-11-22 06:00:00 20.7 18 Oeste 26 Oeste 0 1014.3 -- 66
2020-11-22 05:00:00 20.8 18 Oeste 26 Oeste 0 1013.8 -- 65
2020-11-22 04:00:00 20.7 16 Oeste 21 Oeste 0 1013.7 -- 61
2020-11-22 03:00:00 20.9 15 Oeste 22 Oeste 0 1013.9 -- 57
2020-11-22 02:00:00 21.3 16 Oeste 24 Oeste 0 1013.8 -- 51
2020-11-22 01:00:00 21.4 15 Oeste 21 Oeste 0 1013.9 -- 49
2020-11-22 00:00:00 20.7 12 Oeste 15 Oeste 0 1014 -- 45
2020-11-21 23:00:00 21.4 10 Oeste 17 Oeste 0 1014 -- 41
2020-11-21 22:00:00 21.9 12 Oeste 21 Oeste 0 1013.9 -- 39
2020-11-21 21:00:00 22.8 10 Oeste 17 Oeste 0 1013.8 -- 35
2020-11-21 20:00:00 23.2 13 Oeste 21 Oeste 0 1013.2 -- 34
2020-11-21 19:00:00 23.5 15 Oeste 21 Oeste 0 1012.8 -- 37
2020-11-21 18:00:00 24 10 Oeste 21 Sur 0 1012.5 -- 42
2020-11-21 17:00:00 24.4 17 Sudeste 33 Sur 0 1012.2 -- 51
2020-11-21 16:00:00 25.6 20 Sudeste 32 Sur 0 1011.9 -- 46
2020-11-21 15:00:00 26.1 24 Sudeste 35 Sur 0 1011.8 -- 45
2020-11-21 14:00:00 27.2 17 Sudeste 26 Sur 0 1012.1 -- 42
2020-11-21 13:00:00 25.9 10 Este 15 Sudeste 0 1013 -- 55
2020-11-21 12:00:00 25.4 10 Sudeste 13 Este 0 1013.8 -- 59
2020-11-21 11:00:00 25.4 4 Este 9 Norte 0 1014.1 -- 57
2020-11-21 10:00:00 24.2 5 Norte 9 Norte 0 1014.4 -- 60
2020-11-21 09:00:00 21.7 4 Noroeste 13 Oeste 0 1014.1 -- 55
2020-11-21 08:00:00 19.3 10 Oeste 15 Oeste 0 1013.6 -- 51
2020-11-21 07:00:00 19.6 8 Oeste 11 Oeste 0 1013 -- 51
2020-11-21 06:00:00 20 8 Oeste 11 Oeste 0 1012.7 -- 52
2020-11-21 05:00:00 21.2 6 Oeste 11 Oeste 0 1012.6 -- 38
2020-11-21 04:00:00 20.4 6 Oeste 13 Sudoeste 0 1013 -- 41
2020-11-21 03:00:00 21.5 12 Sudoeste 22 Sudoeste 0 1013.1 -- 39
2020-11-21 02:00:00 20.2 10 Sudoeste 15 Sudoeste 0 1013.3 -- 47
2020-11-21 01:00:00 19.7 4 Oeste 11 Sudoeste 0 1013.7 -- 55
2020-11-21 00:00:00 19.3 8 Sudoeste 9 Sudoeste 0 1014 -- 71
2020-11-20 23:00:00 19.3 9 Oeste 11 Oeste 0 1014.3 -- 87
2020-11-20 22:00:00 19.4 2 Oeste 11 Oeste 0 1014.2 -- 68
2020-11-20 21:00:00 19.7 9 Oeste 18 Sur 0 1014.4 -- 80
2020-11-20 20:00:00 19.6 8 Oeste 11 Oeste 0 1014 -- 78
2020-11-20 19:00:00 20.5 0 Calma 8 Norte 0 1013.4 -- 83
2020-11-20 18:00:00 21.9 3 Norte 9 Norte 0 1013.2 -- 80
2020-11-20 17:00:00 22.6 7 Norte 13 Norte 0 1013.1 -- 78
2020-11-20 16:00:00 22.7 10 Norte 17 Norte 0 1012.9 -- 76
2020-11-20 15:00:00 23.5 13 Norte 18 Norte 0 1012.9 -- 74
2020-11-20 14:00:00 23.6 13 Norte 21 Nordeste 0 1013.5 -- 71
2020-11-20 13:00:00 23.8 14 Norte 24 Nordeste 0 1014 -- 70
2020-11-20 12:00:00 23.6 14 Norte 18 Norte 0 1014.7 -- 71
2020-11-20 11:00:00 22.3 13 Nordeste 24 Nordeste 0 1015.8 -- 77
2020-11-20 10:00:00 21.5 9 Noroeste 15 Norte 0 1015.5 -- 76
2020-11-20 09:00:00 20.6 12 Oeste 21 Oeste 0 1015.1 -- 79
2020-11-20 08:00:00 19.6 13 Oeste 18 Oeste 0 1014.3 -- 75
2020-11-20 07:00:00 20.2 13 Oeste 17 Oeste 0 1014 -- 76
2020-11-20 06:00:00 20 12 Oeste 17 Oeste 0 1013.6 -- 80
2020-11-20 05:00:00 18.8 11 Oeste 13 Oeste 0 1013.6 -- 85
2020-11-20 04:00:00 19.5 8 Oeste 15 Sudoeste 0 1013.8 -- 82
2020-11-20 03:00:00 19.6 12 Sudoeste 15 Sudoeste 0 1014.1 -- 80
2020-11-20 02:00:00 19.9 13 Sudoeste 18 Sudoeste 0 1014.4 -- 76
2020-11-20 01:00:00 19.8 15 Sudoeste 21 Oeste 0 1014.8 -- 75
2020-11-20 00:00:00 19.3 12 Sudoeste 13 Sudoeste 0 1015.7 -- 79
2020-11-19 23:00:00 19.7 10 Oeste 15 Sudoeste 0 1016.1 -- 77
2020-11-19 22:00:00 20.1 12 Oeste 15 Oeste 0 1016.2 -- 71
2020-11-19 21:00:00 20 9 Sudoeste 15 Sudoeste 0 1015.8 -- 77
2020-11-19 20:00:00 20 12 Sudoeste 15 Sudoeste 0 1015.5 -- 80
2020-11-19 19:00:00 20.4 6 Sur 18 Sur 0 1015.2 -- 84
2020-11-19 18:00:00 21.6 9 Sur 15 Sur 0 1014.9 -- 81
2020-11-19 17:00:00 21.9 8 Sudeste 13 Sudeste 0 1014.9 -- 78
2020-11-19 16:00:00 22.3 6 Este 9 Este 0 1015 -- 77
2020-11-19 15:00:00 22.4 5 Nordeste 13 Nordeste 0 1015.3 -- 74
2020-11-19 14:00:00 22.3 8 Nordeste 17 Norte 0 1016.1 -- 78
2020-11-19 13:00:00 21.6 12 Norte 21 Norte 0 1017 -- 83
2020-11-19 12:00:00 21.6 19 Norte 28 Noroeste 0 1018 -- 86
2020-11-19 11:00:00 21.2 19 Noroeste 30 Norte 0 1018.7 -- 85
2020-11-19 10:00:00 21.2 17 Noroeste 32 Norte 0 1018.7 -- 82
2020-11-19 09:00:00 20.8 24 Norte 33 Norte 0 1018.6 -- 87
2020-11-19 08:00:00 20 14 Noroeste 39 Norte 0.3 1018.6 -- 86
2020-11-19 07:00:00 20.2 27 Norte 41 Norte 0.4 1018.1 -- 91
2020-11-19 06:00:00 21.3 13 Noroeste 32 Norte 0 1017.7 -- 76
2020-11-19 05:00:00 21.3 13 Norte 26 Noroeste 0 1017.7 -- 77
2020-11-19 04:00:00 21 16 Noroeste 28 Noroeste 0 1018 -- 81
2020-11-19 03:00:00 21.4 25 Norte 35 Norte 0 1018.1 -- 86
2020-11-19 02:00:00 21.6 13 Noroeste 26 Noroeste 0 1018.6 -- 77
2020-11-19 01:00:00 21.7 16 Noroeste 33 Norte 0 1019.1 -- 76
2020-11-19 00:00:00 21.9 27 Norte 39 Norte 0 1019.7 -- 83
2020-11-18 23:00:00 22.1 26 Norte 37 Norte 0 1019.9 -- 82
2020-11-18 22:00:00 22 27 Norte 39 Norte 0 1020 -- 82
2020-11-18 21:00:00 22.1 30 Norte 41 Norte 0 1019.8 -- 83
2020-11-18 20:00:00 22.2 32 Norte 42 Norte 0 1019.5 -- 82
2020-11-18 19:00:00 22.2 36 Norte 52 Norte 0 1019 -- 83
2020-11-18 18:00:00 22.4 38 Norte 55 Norte 0 1018.4 -- 83
2020-11-18 17:00:00 22.5 42 Norte 59 Nordeste 0 1018.1 -- 83
2020-11-18 16:00:00 22.9 41 Norte 54 Norte 0 1018.2 -- 82
2020-11-18 15:00:00 23.4 32 Norte 61 Norte 0 1018.3 -- 79
2020-11-18 14:00:00 23.5 43 Norte 58 Norte 0 1018.3 -- 79
2020-11-18 13:00:00 23.4 42 Norte 58 Norte 0 1018.6 -- 81
2020-11-18 12:00:00 24.1 36 Norte 48 Norte 0 1019 -- 76
2020-11-18 11:00:00 23.8 36 Norte 42 Norte 0 1019.4 -- 78
2020-11-18 10:00:00 23.9 12 Norte 24 Norte 0 1019.1 -- 68
2020-11-18 09:00:00 23.3 2 Norte 15 Nordeste 0 1018.7 -- 53
2020-11-18 08:00:00 21.5 5 Oeste 11 Oeste 0 1017.9 -- 48
2020-11-18 07:00:00 20.8 7 Oeste 9 Oeste 0 1017.1 -- 46
2020-11-18 06:00:00 21.5 6 Noroeste 9 Norte 0 1016.8 -- 50
2020-11-18 05:00:00 20.6 5 Noroeste 13 Noroeste 0 1017 -- 62
2020-11-18 04:00:00 20.6 8 Oeste 9 Oeste 0 1017 -- 70
2020-11-18 03:00:00 20 6 Oeste 9 Oeste 0 1017.3 -- 62
2020-11-18 02:00:00 19.9 3 Sudoeste 8 Sudoeste 0 1017.3 -- 66
2020-11-18 01:00:00 20.4 5 Oeste 8 Oeste 0 1017.3 -- 54
2020-11-18 00:00:00 20.6 6 Sudoeste 9 Sudoeste 0 1017.6 -- 56
2020-11-17 23:00:00 22 6 Oeste 15 Sudoeste 0 1017.7 -- 49
2020-11-17 22:00:00 22.3 6 Norte 17 Norte 0 1018 -- 83
2020-11-17 21:00:00 22.3 8 Noroeste 11 Norte 0 1017.5 -- 77
2020-11-17 20:00:00 21.4 5 Oeste 9 Oeste 0 1017 -- 74
2020-11-17 19:00:00 22.1 0 Calma 11 Norte 0 1016.3 -- 84
2020-11-17 18:00:00 23.9 9 Norte -- -- -- 1015.8 -- 87
2020-11-17 17:00:00 24.5 0 Calma 5 Sudeste 0 1015.1 -- 84
2020-11-17 16:00:00 24.4 4 Nordeste 9 Este 0 1015.1 -- 84
2020-11-17 15:00:00 24.3 5 Este 13 Este 0 1015.1 -- 83
2020-11-17 14:00:00 25.4 10 Este 13 Sudeste 0 1015.7 -- 75
2020-11-17 13:00:00 25.3 6 Este 11 Este 0 1016.6 -- 74
2020-11-17 12:00:00 25.2 0 Calma 8 Nordeste 0 1017.3 -- 68
2020-11-17 11:00:00 25.1 4 Nordeste 9 Este 0 1017.5 -- 60
2020-11-17 10:00:00 23.7 4 Norte 8 Nordeste 0 1017.3 -- 66
2020-11-17 09:00:00 22 2 Noroeste 8 Oeste 0 1017 -- 56
2020-11-17 08:00:00 20.2 4 Oeste 5 Oeste 0 1016.4 -- 68
2020-11-17 07:00:00 20.5 6 Oeste 9 Oeste 0 1015.8 -- 67
2020-11-17 06:00:00 19.5 7 Oeste 8 Noroeste 0 1015.7 -- 81
2020-11-17 05:00:00 19.4 6 Oeste 9 Oeste 0 1015.4 -- 83
2020-11-17 04:00:00 19.2 8 Oeste 11 Oeste 0 1015.4 -- 90
2020-11-17 03:00:00 19.4 6 Oeste 9 Oeste 0 1015.7 -- 90
2020-11-17 02:00:00 19.5 9 Oeste 9 Oeste 0 1016 -- 90
2020-11-17 01:00:00 19.4 8 Oeste 11 Oeste 0 1016.1 -- 87
2020-11-17 00:00:00 20.1 9 Oeste 13 Oeste 0 1016.8 -- 84
2020-11-16 23:00:00 20.1 9 Oeste 13 Oeste 0 1017.1 -- 81
2020-11-16 22:00:00 20.6 10 Oeste 13 Oeste 0 1016.8 -- 81
2020-11-16 21:00:00 20.6 9 Oeste 13 Oeste 0 1016.8 -- 83
2020-11-16 20:00:00 21.4 8 Oeste 13 Oeste 0 1016.5 -- 84
2020-11-16 19:00:00 22.3 8 Norte 13 Norte 0 1016.1 -- 85
2020-11-16 18:00:00 22.8 12 Norte 18 Norte 0 1015.6 -- 82
2020-11-16 17:00:00 23.2 11 Norte 13 Norte -- 1015.5 -- 80
2020-11-16 16:00:00 23.6 10 Norte 13 Norte 0 -- -- 79
2020-11-16 15:00:00 24.1 8 Nordeste 11 Nordeste 0 1015.4 -- 77
2020-11-16 14:00:00 23.9 8 Este 11 Este 0 1015.9 -- 77
2020-11-16 13:00:00 24.3 8 Este 11 Este 0 1016.3 -- 75
2020-11-16 12:00:00 23.2 6 Este 13 Este 0 1017.2 -- 80
2020-11-16 11:00:00 24.7 8 Este 9 Este 0 1017.5 -- 74
2020-11-16 10:00:00 24.1 7 Norte 9 Nordeste 0 1017.4 -- 70
2020-11-16 09:00:00 22.8 0 Calma 8 Oeste 0 1016.8 -- 74
2020-11-16 08:00:00 20 7 Oeste 11 Oeste 0 1015.7 -- 82
2020-11-16 07:00:00 20.3 4 Oeste 8 Oeste 0 1014.9 -- 78
2020-11-16 06:00:00 20.3 8 Sudoeste 15 Sudoeste 0 1014.5 -- 82
2020-11-16 05:00:00 20.6 11 Sudoeste 15 Sudoeste 0 1014.8 -- 83
2020-11-16 04:00:00 20.4 12 Sudoeste 15 Sudoeste 0 1014.4 -- 84
2020-11-16 03:00:00 21.2 10 Sudoeste 26 Sur 0 1014.6 -- 82
2020-11-16 02:00:00 21.8 23 Sur 28 Sur 0 1014.8 -- 82
2020-11-16 01:00:00 22.1 12 Sur 17 Sudoeste 0 1014.9 -- 66
2020-11-16 00:00:00 21.9 13 Sudoeste 17 Sudoeste 0 1014.8 -- 69
2020-11-15 23:00:00 20.6 5 Sudoeste 13 Oeste 0 1015 -- 70
2020-11-15 22:00:00 22.2 8 Noroeste 13 Noroeste 0 1014.6 -- 75
2020-11-15 21:00:00 22.8 6 Sur 13 Oeste 0 1014.3 -- 75
2020-11-15 20:00:00 23 12 Oeste 21 Noroeste 0 1013.9 -- 78
2020-11-15 19:00:00 23.2 14 Noroeste 22 Nordeste 0 1013.2 -- 81
2020-11-15 18:00:00 23.7 16 Nordeste 26 Nordeste 0 1012.7 -- 80
2020-11-15 17:00:00 24.9 10 Norte 17 Nordeste 0 1012.1 -- 73
2020-11-15 16:00:00 25.5 7 Norte 35 Noroeste 0 1011.7 -- 68
2020-11-15 15:00:00 25.1 14 Noroeste 37 Nordeste 0 1011.5 -- 74
2020-11-15 14:00:00 27 19 Oeste 45 Oeste 0 1011.6 -- 48
2020-11-15 13:00:00 27.8 11 Oeste 42 Oeste 0 1011.7 -- 46
2020-11-15 12:00:00 27.8 16 Sudoeste 39 Oeste 0 1012.2 -- 46
2020-11-15 11:00:00 25.9 9 Nordeste 37 Oeste 0 1012.3 -- 61
2020-11-15 10:00:00 26.4 24 Oeste 42 Oeste 0 1011.4 -- 50
2020-11-15 09:00:00 25.9 19 Oeste 41 Sudoeste 0 1010.8 -- 52
2020-11-15 08:00:00 25.1 11 Oeste 32 Sudoeste 0 1010.4 -- 54
2020-11-15 07:00:00 24.6 13 Sur 39 Sur 0 1010.3 -- 57
2020-11-15 06:00:00 24.6 15 Sur 42 Oeste 0 1009.7 -- 57
2020-11-15 05:00:00 24.7 22 Sudoeste 41 Sudoeste 0 1009.6 -- 55
2020-11-15 04:00:00 24.2 13 Sudeste 41 Sur 0 1009.8 -- 63
2020-11-15 03:00:00 25 19 Oeste 50 Sudeste 0 1009.5 -- 56
2020-11-15 02:00:00 23.9 11 Sudeste 42 Sudoeste 0 1009.7 -- 70
2020-11-15 01:00:00 24.4 17 Oeste 52 Oeste 0 1010 -- 60
2020-11-15 00:00:00 24.4 21 Sur 42 Sudoeste 0 1010 -- 60
2020-11-14 23:00:00 24.1 21 Sur 41 Sudoeste 0 1010.6 -- 63
2020-11-14 22:00:00 24.8 18 Sur 63 Oeste 0 1010.5 -- 55
2020-11-14 21:00:00 25.2 19 Sudoeste 61 Oeste 0 1010.4 -- 53
2020-11-14 20:00:00 24.8 20 Sudoeste 55 Oeste 0 1009.3 -- 57
2020-11-14 19:00:00 25.3 25 Sudoeste 54 Oeste 0 1009.4 -- 52
2020-11-14 18:00:00 25.5 27 Sudoeste 52 Oeste 0 1008.6 -- 52
2020-11-14 17:00:00 26 14 Sudoeste 58 Oeste 0 1008.9 -- 53
2020-11-14 16:00:00 26.6 30 Oeste 63 Oeste 0 1008.9 -- 50
2020-11-14 15:00:00 27 28 Oeste 58 Oeste 0 1008.6 -- 48
2020-11-14 14:00:00 27.2 27 Sudoeste 52 Sudoeste 0 1009.2 -- 46
2020-11-14 13:00:00 27.7 22 Sudoeste 54 Oeste 0 1009.4 -- 45
2020-11-14 12:00:00 27.6 16 Oeste 59 Oeste 0 1009.9 -- 44
2020-11-14 11:00:00 27.3 8 Sur 39 Sur 0 1010.6 -- 45
2020-11-14 10:00:00 26.4 22 Sur 42 Sur 0 1010.9 -- 51
2020-11-14 09:00:00 25.3 13 Sur 30 Este 0 1010 -- 58
2020-11-14 08:00:00 22.9 6 Noroeste 28 Sur 0 1009.5 -- 75
2020-11-14 07:00:00 22.7 9 Sur 30 Sudeste 0 1009.2 -- 73
2020-11-14 06:00:00 22 13 Sudoeste 32 Sudeste 0 1008.7 -- 79
2020-11-14 05:00:00 22.1 19 Sudeste 28 Sudeste 0 1009.2 -- 87
2020-11-14 04:00:00 21.8 19 Sur 32 Sur 0 1008.9 -- 84
2020-11-14 03:00:00 21.7 23 Sur 37 Sur 0 1009.6 -- 89
2020-11-14 02:00:00 21.8 17 Sur 35 Sur 0 1009.9 -- 88
2020-11-14 01:00:00 21.8 23 Sur 41 Sur 0 1010.1 -- 87
2020-11-14 00:00:00 21.9 19 Sur 35 Sur 0 1010.3 -- 86
2020-11-13 23:00:00 22.2 24 Sur 42 Sur 0 1010.7 -- 82
2020-11-13 22:00:00 22.5 23 Sur 45 Sudeste 0 1011.4 -- 82
2020-11-13 21:00:00 22.7 22 Sudeste 46 Sudeste 0 1010.9 -- 75
2020-11-13 20:00:00 22.9 31 Sudeste 50 Sudeste 0 1010.1 -- 71
2020-11-13 19:00:00 23.5 28 Sudeste 41 Sur 0 1009.8 -- 61
2020-11-13 18:00:00 23.8 22 Sudeste 48 Sudeste 0 1009.6 -- 60
2020-11-13 17:00:00 23.5 35 Sudeste 52 Sur 0 1009.8 -- 70
2020-11-13 16:00:00 24.8 35 Sudeste 58 Sur 0 1010 -- 63
2020-11-13 15:00:00 26.8 39 Sur 59 Sur 0 1010 -- 47
2020-11-13 14:00:00 26.3 37 Sur 65 Sur 0 1010.4 -- 47
2020-11-13 13:00:00 25.9 42 Sur 59 Sur 0 1011.2 -- 41
2020-11-13 12:00:00 24.7 30 Sur 45 Sur 0 1012 -- 51
2020-11-13 11:00:00 24.8 25 Sur 41 Sur 0 1012.6 -- 51
2020-11-13 10:00:00 23.4 10 Sur 33 Sudeste 0 1012.6 -- 51
2020-11-13 09:00:00 22.3 20 Sur 32 Sur 0 1012.2 -- 75
2020-11-13 08:00:00 21.2 8 Sudoeste 26 Sur 0 1012.2 -- 79
2020-11-13 07:00:00 21.2 9 Sur 17 Sur 0 1011.8 -- 74
2020-11-13 06:00:00 20.4 6 Oeste 11 Oeste 0 1012.1 -- 73
2020-11-13 05:00:00 20.2 7 Sudoeste 9 Sudoeste 0 1012.2 -- 82
2020-11-13 04:00:00 20.8 2 Oeste 11 Sudoeste 0 1011.9 -- 83
2020-11-13 03:00:00 20.3 9 Sur 11 Sudoeste 0 1011.8 -- 82
2020-11-13 02:00:00 20.4 4 Oeste 8 Oeste 0 1012.2 -- 85
2020-11-13 01:00:00 20.3 9 Sudoeste 11 Sudoeste 0 1012.6 -- 87
2020-11-13 00:00:00 20.4 5 Oeste 8 Oeste 0 1012.9 -- 87
2020-11-12 23:00:00 20.8 5 Noroeste 9 Oeste 0 1013.1 -- 83
2020-11-12 22:00:00 21 6 Noroeste 9 Noroeste 0 1013.1 -- 85
2020-11-12 21:00:00 21 0 Calma 8 Oeste 0 1012.9 -- 84
2020-11-12 20:00:00 20.9 3 Sudoeste 9 Sur 0 1012.5 -- 84
2020-11-12 19:00:00 21.2 4 Sudoeste 9 Oeste 0 1012.4 -- 84
2020-11-12 18:00:00 22.2 5 Sudeste 11 Nordeste 0 1012.4 -- 80
2020-11-12 17:00:00 22.4 8 Nordeste 13 Sudeste 0 1012.1 -- 79
2020-11-12 16:00:00 22.6 6 Este 11 Este 0 1011.8 -- 77
2020-11-12 15:00:00 22.6 7 Este 11 Este 0 1011.6 -- 77
2020-11-12 14:00:00 22.5 6 Sudeste 13 Sudeste 0 1012 -- 76
2020-11-12 13:00:00 22.8 9 Sudeste 13 Sudeste 0 1012.7 -- 76
2020-11-12 12:00:00 23.1 7 Este 9 Este 0 1013.4 -- 74
2020-11-12 11:00:00 22.8 6 Este 11 Sudeste 0 1013.5 -- 76
2020-11-12 10:00:00 22.7 6 Sudeste 11 Sudeste 0 1013.5 -- 75
2020-11-12 09:00:00 21 7 Oeste 15 Sudoeste 0 1013.4 -- 81
2020-11-12 08:00:00 19.6 6 Oeste 11 Oeste 0 1012.6 -- 85
2020-11-12 07:00:00 19.3 9 Oeste 11 Oeste 0 1012.1 -- 83
2020-11-12 06:00:00 19 9 Oeste 11 Oeste 0 1011.8 -- 84
2020-11-12 05:00:00 19.4 6 Oeste 11 Oeste 0 1011.9 -- 82
2020-11-12 04:00:00 19.4 9 Sudoeste 13 Oeste 0 1012 -- 83
2020-11-12 03:00:00 19.2 8 Sudoeste 13 Oeste 0 1012.4 -- 82
2020-11-12 02:00:00 19.7 8 Oeste 11 Oeste 0 1012.9 -- 82
2020-11-12 01:00:00 19.9 7 Oeste 11 Oeste 0 1013.2 -- 81
2020-11-12 00:00:00 20 6 Oeste 11 Oeste 0 1013.9 -- 80
2020-11-11 23:00:00 20.5 8 Oeste 13 Oeste 0 1014.4 -- 78
2020-11-11 22:00:00 20.8 10 Oeste 17 Noroeste 0 1014.9 -- 77
2020-11-11 21:00:00 21.3 12 Noroeste 21 Norte 0 1014.7 -- 75
2020-11-11 20:00:00 21.6 13 Norte 21 Norte 0 1014.2 -- 76
2020-11-11 19:00:00 21.6 13 Norte 21 Norte 0 1013.8 -- 75
2020-11-11 18:00:00 21.6 13 Norte 17 Norte 0 1013.3 -- 74
2020-11-11 17:00:00 21.8 12 Norte 15 Norte 0 1012.8 -- 73
2020-11-11 16:00:00 21.8 10 Nordeste 17 Nordeste 0 1012.8 -- 74
2020-11-11 15:00:00 21.8 12 Nordeste 15 Nordeste 0 1012.7 -- 74
2020-11-11 14:00:00 22.4 9 Norte 13 Norte 0 1013.1 -- 70
2020-11-11 13:00:00 22.2 9 Norte 17 Norte 0 1013.5 -- 71
2020-11-11 12:00:00 22.5 10 Nordeste 17 Nordeste 0 1013.8 -- 71
2020-11-11 11:00:00 21.7 9 Nordeste 13 Nordeste 0 1014.6 -- 74
2020-11-11 10:00:00 21.7 7 Norte 13 Noroeste 0 1014.3 -- 72
2020-11-11 09:00:00 20.8 10 Oeste 15 Oeste 0 1014.1 -- 72
2020-11-11 08:00:00 20.2 11 Oeste 17 Oeste 0 1013.6 -- 71
2020-11-11 07:00:00 19.8 10 Oeste 13 Oeste 0 1013.2 -- 76
2020-11-11 06:00:00 19.9 9 Oeste 13 Oeste 0 1012.9 -- 75
2020-11-11 05:00:00 20.2 9 Oeste 13 Oeste 0 1012.9 -- 71
2020-11-11 04:00:00 20.3 10 Oeste 26 Oeste 0 1012.6 -- 69
2020-11-11 03:00:00 20.2 20 Oeste 30 Oeste 0 1012.7 -- 68
2020-11-11 02:00:00 20.1 13 Oeste 18 Oeste 0 1013.3 -- 69
2020-11-11 01:00:00 20.4 13 Oeste 22 Oeste 0 1014.2 -- 67
2020-11-11 00:00:00 20.4 16 Oeste 21 Oeste 0 1014.9 -- 66
2020-11-10 23:00:00 20.7 13 Oeste 21 Oeste 0 1015.3 -- 66
2020-11-10 22:00:00 20.6 15 Oeste 22 Oeste 0 1015.4 -- 66
2020-11-10 21:00:00 20.7 15 Oeste 21 Oeste 0 1015.2 -- 67
2020-11-10 20:00:00 20.9 12 Noroeste 32 Nordeste 0 1014.8 -- 69
2020-11-10 19:00:00 21.5 14 Norte 26 Nordeste 0 1014.4 -- 68
2020-11-10 18:00:00 21.4 12 Norte 22 Nordeste 0 1013.7 -- 73
2020-11-10 17:00:00 21.6 11 Noroeste 17 Norte 0 1013.6 -- 70
2020-11-10 16:00:00 21.9 8 Norte 18 Noroeste 0 1013.8 -- 70
2020-11-10 15:00:00 21.7 10 Oeste 18 Nordeste 0 1014.1 -- 68
2020-11-10 14:00:00 21.8 13 Nordeste 28 Este 0 1014.6 -- 71
2020-11-10 13:00:00 22 17 Nordeste 28 Nordeste 0 1015.1 -- 71
2020-11-10 12:00:00 21.9 17 Nordeste 30 Nordeste 0 1016.2 -- 72
2020-11-10 11:00:00 22 16 Nordeste 26 Nordeste 0 1016.7 -- 70
2020-11-10 10:00:00 21.8 14 Nordeste 22 Nordeste 0 1016.9 -- 70
2020-11-10 09:00:00 21.3 12 Norte 26 Nordeste 0 1016.5 -- 70
2020-11-10 08:00:00 20.4 8 Noroeste 24 Norte 0 1016.2 -- 75
2020-11-10 07:00:00 20.9 20 Norte 26 Nordeste 0 1015.8 -- 76
2020-11-10 06:00:00 20.3 10 Oeste 22 Oeste 0 1015.8 -- 74
2020-11-10 05:00:00 20.3 13 Oeste 22 Oeste 0 1015.8 -- 74
2020-11-10 04:00:00 20.2 16 Oeste 24 Oeste 0 1015.5 -- 75
2020-11-10 03:00:00 20.3 11 Noroeste 22 Norte 0 1015.7 -- 75
2020-11-10 02:00:00 20.5 10 Noroeste 30 Nordeste 0 1016.1 -- 75
2020-11-10 01:00:00 20.9 14 Nordeste 28 Nordeste 0 1016.6 -- 76
2020-11-10 00:00:00 21.2 22 Nordeste 28 Nordeste 0 1017.1 -- 74
2020-11-09 23:00:00 21.3 18 Nordeste 24 Nordeste 0 1017.7 -- 75
2020-11-09 22:00:00 21.3 19 Nordeste 30 Nordeste 0 1017.9 -- 75
2020-11-09 21:00:00 20.6 13 Nordeste 30 Nordeste 0 1017.7 -- 79
2020-11-09 20:00:00 21.4 24 Nordeste 32 Norte 0 1017.3 -- 77
2020-11-09 19:00:00 21.3 23 Nordeste 30 Nordeste 0 1016.9 -- 77
2020-11-09 18:00:00 20.9 18 Nordeste 28 Nordeste 0.1 1016.8 -- 79
2020-11-09 17:00:00 20.5 12 Noroeste 22 Oeste 0.1 1016.7 -- 81
2020-11-09 16:00:00 20.9 15 Noroeste 24 Norte 0 1016.8 -- 77
2020-11-09 15:00:00 21.4 11 Norte 26 Noroeste 0 1016.9 -- 75
2020-11-09 14:00:00 21 16 Norte 28 Norte 0 1017.4 -- 78
2020-11-09 13:00:00 20.6 11 Oeste 28 Norte 0.6 1018 -- 82
2020-11-09 12:00:00 19.7 13 Oeste 41 Nordeste 0.1 1018.8 -- 90
2020-11-09 11:00:00 22.6 13 Norte 24 Oeste 0 1019 -- 70
2020-11-09 10:00:00 19.2 22 Oeste 42 Norte 1 1019.1 -- 85
2020-11-09 09:00:00 20.6 13 Norte 35 Norte 0 1018.5 -- 75
2020-11-09 08:00:00 19.8 11 Noroeste 22 Oeste 0 1017.8 -- 76
2020-11-09 07:00:00 19.6 13 Oeste 28 Norte 0 1017.4 -- 73
2020-11-09 06:00:00 20.3 17 Noroeste 24 Noroeste 0 1017.1 -- 67
2020-11-09 05:00:00 19.6 11 Oeste 21 Oeste 0 1016.9 -- 66
2020-11-09 04:00:00 18.7 11 Oeste 18 Oeste 0 1017.2 -- 65
2020-11-09 03:00:00 19.1 13 Oeste 18 Oeste 0 1017.5 -- 66
2020-11-09 02:00:00 18.9 12 Oeste 18 Noroeste 0 1017.8 -- 65
2020-11-09 01:00:00 19 12 Oeste 18 Oeste 0 1017.9 -- 64
2020-11-09 00:00:00 19.1 11 Oeste 18 Oeste 0 1018.2 -- 65
2020-11-08 23:00:00 19.1 12 Oeste 17 Oeste 0 1018.5 -- 67
2020-11-08 22:00:00 19.6 12 Oeste 21 Noroeste 0 1018.5 -- 68
2020-11-08 21:00:00 19.5 11 Oeste 15 Noroeste 0 1018.1 -- 69
2020-11-08 20:00:00 19.7 5 Noroeste 18 Norte 0 1017.6 -- 69
2020-11-08 19:00:00 20.9 16 Norte 24 Nordeste 0 1017.2 -- 70
2020-11-08 18:00:00 21.4 19 Norte 28 Norte 0 1016.8 -- 70
2020-11-08 17:00:00 21.8 21 Norte 26 Norte 0 1016.6 -- 68
2020-11-08 16:00:00 21.9 18 Norte 24 Nordeste 0 1016.8 -- 65
2020-11-08 15:00:00 22 11 Nordeste 21 Norte 0 1016.7 -- 64
2020-11-08 14:00:00 22.6 18 Norte 26 Nordeste 0 1017 -- 62
2020-11-08 13:00:00 23.1 13 Nordeste 17 Norte 0 1017.5 -- 59
2020-11-08 12:00:00 22.7 8 Nordeste 15 Nordeste 0 1018.1 -- 61
2020-11-08 11:00:00 22.5 5 Nordeste 11 Norte 0 1018.5 -- 59
2020-11-08 10:00:00 22 8 Norte 13 Norte 0 1018.3 -- 61
2020-11-08 09:00:00 21.5 9 Norte 13 Norte 0 1018.2 -- 58
2020-11-08 08:00:00 18.8 5 Noroeste 13 Oeste 0 1017.5 -- 65
2020-11-08 07:00:00 18 9 Oeste 13 Oeste 0 1016.9 -- 66
2020-11-08 06:00:00 17.8 8 Oeste 17 Oeste 0 1016.6 -- 65
2020-11-08 05:00:00 17.8 13 Oeste 17 Oeste 0 1016.4 -- 65
2020-11-08 04:00:00 18.1 9 Oeste 17 Oeste 0 1016.4 -- 65
2020-11-08 03:00:00 18.5 10 Oeste 13 Sudoeste 0 1016.6 -- 64
2020-11-08 02:00:00 18.3 5 Oeste 21 Sudoeste 0 1016.9 -- 64
2020-11-08 01:00:00 18.8 16 Sudoeste 22 Oeste 0 1016.9 -- 60
2020-11-08 00:00:00 19.2 15 Sudoeste 21 Sudoeste 0 1017.2 -- 63
2020-11-07 23:00:00 19.3 15 Sudoeste 22 Oeste 0 1017.2 -- 64
2020-11-07 22:00:00 19.3 15 Sudoeste 21 Sudoeste 0 1017.1 -- 64
2020-11-07 21:00:00 19.3 14 Sudoeste 18 Sudoeste 0 1016.8 -- 67
2020-11-07 20:00:00 19.6 12 Sudoeste 17 Oeste 0 1016.5 -- 68
2020-11-07 19:00:00 20.7 3 Oeste 9 Nordeste 0 1016 -- 65
2020-11-07 18:00:00 21.9 4 Nordeste 11 Nordeste 0 1015.5 -- 60
2020-11-07 17:00:00 22.2 9 Norte 15 Norte 0 1015.4 -- 62
2020-11-07 16:00:00 22.3 9 Norte 13 Norte 0 1014.9 -- 64
2020-11-07 15:00:00 22.4 3 Este 11 Este 0 1015 -- 60
2020-11-07 14:00:00 22.7 6 Este 13 Este 0 1015.4 -- 58
2020-11-07 13:00:00 23.5 7 Este 13 Sudeste 0 1016 -- 58
2020-11-07 12:00:00 23.6 9 Este 13 Este 0 1016.6 -- 58
2020-11-07 11:00:00 23.4 8 Este 11 Este 0 1016.7 -- 58
2020-11-07 10:00:00 22.6 5 Este 8 Este 0 1016.2 -- 58
2020-11-07 09:00:00 21.6 0 Calma 13 Sudoeste 0 1015.6 -- 55
2020-11-07 08:00:00 18.2 8 Oeste 18 Oeste 0 1014.7 -- 58
2020-11-07 07:00:00 18.3 15 Oeste 21 Oeste 0 1013.8 -- 58
2020-11-07 06:00:00 18.6 14 Oeste 28 Oeste 0 1013.4 -- 53
2020-11-07 05:00:00 19.1 16 Oeste 24 Oeste 0 1013 -- 52
2020-11-07 04:00:00 18.8 17 Oeste 22 Oeste 0 1013 -- 65
2020-11-07 03:00:00 18.9 17 Sudoeste 21 Oeste 0 1012.8 -- 66
2020-11-07 02:00:00 18.9 15 Sudoeste 22 Sudoeste 0 1012.6 -- 66
2020-11-07 01:00:00 19.2 15 Oeste 21 Sudoeste 0 1012.6 -- 65
2020-11-07 00:00:00 19.9 13 Sudoeste 21 Sudoeste 0 1012.7 -- 64
2020-11-06 23:00:00 20.9 12 Sudoeste 22 Sudoeste 0 1012.5 -- 64
2020-11-06 22:00:00 20.3 19 Sudoeste 28 Sudoeste 0 1012.1 -- 55
2020-11-06 21:00:00 20 18 Sudoeste 30 Sudoeste 0 1011.4 -- 64
2020-11-06 20:00:00 20.2 14 Sudoeste 32 Sudoeste 0 1010.7 -- 61
2020-11-06 19:00:00 20.9 17 Sudoeste 28 Sudoeste 0 1010.1 -- 50
2020-11-06 18:00:00 21.6 21 Sudoeste 28 Sudoeste 0 1009.5 -- 59
2020-11-06 17:00:00 23 14 Sur 33 Sur 0 1009 -- 55
2020-11-06 16:00:00 23 20 Sudeste 35 Sudeste 0 1008.3 -- 58
2020-11-06 15:00:00 23.4 12 Este 30 Este 0 1008 -- 57
2020-11-06 14:00:00 22.9 16 Este 26 Este 0 1007.7 -- 62
2020-11-06 13:00:00 22.8 14 Este 30 Nordeste 0 1007.9 -- 65
2020-11-06 12:00:00 22.9 16 Nordeste 24 Nordeste 0 1008.2 -- 65
2020-11-06 11:00:00 22.4 10 Oeste 32 Oeste 0 1008.2 -- 63
2020-11-06 10:00:00 21.8 14 Este 45 Este 0 1007.4 2.5 59
2020-11-06 09:00:00 20.4 20 Sudoeste 46 Noroeste 0 1006.6 -- 64
2020-11-06 08:00:00 19.2 17 Oeste 46 Oeste 0.1 1005.5 -- 70
2020-11-06 07:00:00 16.9 12 Sudoeste 28 Oeste 1.9 1004.9 -- 87
2020-11-06 06:00:00 17.5 15 Oeste 33 Sudoeste 1.4 1004 -- 83
2020-11-06 05:00:00 19 19 Sudoeste -- -- -- 1003.6 -- 71
2020-11-06 04:00:00 17.5 9 Sudoeste 18 Sur 2.4 1003.7 -- 86
2020-11-06 03:00:00 16.7 4 Oeste 30 Oeste 6.5 1003.9 -- 89
2020-11-06 02:00:00 19.8 17 Sudoeste 42 Este 0.1 1003.6 -- 72
2020-11-06 01:00:00 19.5 15 Sur 41 Oeste 0 1004 -- 71
2020-11-06 00:00:00 20.9 11 Sudoeste 28 Oeste 0 1004 -- 55
2020-11-05 23:00:00 19.3 11 Sudoeste 32 Sudoeste 0 1004.4 -- 61
2020-11-05 22:00:00 19.7 4 Norte 17 Sur 0 1004.7 -- 57
2020-11-05 21:00:00 20.5 12 Sur 21 Sudeste 0 1004.5 -- 52
2020-11-05 20:00:00 20.2 11 Noroeste 35 Noroeste 0 1004.2 -- 58
2020-11-05 19:00:00 20.6 10 Sudoeste 30 Noroeste 0 1003.8 -- 58
2020-11-05 18:00:00 20.8 3 Este 22 Este 0 1003.6 -- 65
2020-11-05 17:00:00 21 18 Este 24 Este 0 1003.4 -- 68
2020-11-05 16:00:00 21.7 13 Este 24 Este 0 1003.3 -- 63
2020-11-05 15:00:00 21.5 10 Este 18 Este 0 1003.5 -- 62
2020-11-05 14:00:00 21.3 13 Este 21 Este 0 1003.9 -- 66
2020-11-05 13:00:00 21.1 9 Sudeste 15 Este 0 1004.4 -- 63
2020-11-05 12:00:00 21.3 6 Nordeste 15 Norte 0 1005.5 -- 64
2020-11-05 11:00:00 21 5 Este 17 Norte 0 1006.3 -- 63
2020-11-05 10:00:00 21.1 14 Nordeste 22 Nordeste 0 1006.5 -- 68
2020-11-05 09:00:00 20.6 4 Nordeste 17 Sudoeste 0 1006.2 -- 61
2020-11-05 08:00:00 16.7 9 Sudoeste 17 Oeste 0 1006.3 -- 71
2020-11-05 07:00:00 17.7 12 Oeste 21 Sudoeste 0 1006.1 -- 67
2020-11-05 06:00:00 17.5 11 Sudoeste 22 Sudoeste 0 1006.2 -- 68
2020-11-05 05:00:00 17.5 18 Sudoeste 24 Sudoeste 0 1006.5 -- 70
2020-11-05 04:00:00 17.7 14 Sudoeste 18 Sur 0 1007.1 -- 68
2020-11-05 03:00:00 17.4 10 Sudoeste 18 Sudoeste 0 1007.6 -- 70
2020-11-05 02:00:00 17.9 9 Oeste 15 Oeste 0 1008.8 -- 70
2020-11-05 01:00:00 17.7 8 Sudoeste 18 Norte 0 1009.7 -- 73
2020-11-05 00:00:00 19.1 11 Noroeste 24 Norte 0 1010.6 -- 70
2020-11-04 23:00:00 19 15 Noroeste 33 Norte 0 1011.6 -- 72
2020-11-04 22:00:00 19.2 22 Norte 41 Norte 0 1012.2 -- 74
2020-11-04 21:00:00 19.1 24 Noroeste 35 Noroeste 0.1 1012 -- 74
2020-11-04 20:00:00 18.6 15 Noroeste 32 Noroeste 0.4 1012.3 -- 80
2020-11-04 19:00:00 18.3 15 Oeste 33 Noroeste 0 1012.4 -- 85
2020-11-04 18:00:00 18.7 16 Noroeste 35 Norte 1.1 1012.8 -- 84
2020-11-04 17:00:00 17.8 27 Norte 45 Norte 2.5 1013.4 -- 91
2020-11-04 16:00:00 18.4 29 Norte 52 Norte 1.1 1013.5 -- 89
2020-11-04 15:00:00 19.8 43 Norte 54 Nordeste 1.3 1013.6 -- 88
2020-11-04 14:00:00 19.7 38 Norte 55 Norte 1.7 1014.3 -- 90
2020-11-04 13:00:00 20.6 36 Nordeste 46 Nordeste 1 1015.1 -- 83
2020-11-04 12:00:00 21.1 38 Nordeste 46 Nordeste 0 1015.8 -- 81
2020-11-04 11:00:00 19.6 26 Nordeste 48 Norte 3.4 1016.4 -- 90
2020-11-04 10:00:00 20.8 32 Nordeste 54 Norte 0 1016.7 0.6 87
2020-11-04 09:00:00 21.3 35 Norte 45 Nordeste 0.5 1016.4 -- 81
2020-11-04 08:00:00 20.6 33 Norte 52 Nordeste 0.3 1016.4 -- 84
2020-11-04 07:00:00 20.7 32 Norte 48 Nordeste 0.2 1016.1 -- 86
2020-11-04 06:00:00 20.4 30 Norte 52 Nordeste 1 1016.3 -- 89
2020-11-04 05:00:00 21.5 38 Norte 48 Norte 0.4 1016.4 -- 87
2020-11-04 04:00:00 21.6 22 Norte 32 Norte 0.1 1016.7 -- 80
2020-11-04 03:00:00 21.1 15 Noroeste 26 Norte 0 1017.2 -- 80
2020-11-04 02:00:00 22 14 Norte 35 Oeste 0 1017.5 -- 73
2020-11-04 01:00:00 21.3 19 Oeste 32 Norte 0 1017.4 -- 74
2020-11-04 00:00:00 21.9 23 Norte 33 Norte 0 1017.8 -- 79
2020-11-03 23:00:00 21.5 23 Norte 41 Nordeste 0.7 1017.8 -- 85
2020-11-03 22:00:00 22.2 22 Norte 35 Noroeste 0 1017.8 -- 68
2020-11-03 21:00:00 22.3 23 Norte 37 Norte 0 1018 -- 70
2020-11-03 20:00:00 22.3 28 Norte 39 Norte 0 1017.9 -- 76
2020-11-03 19:00:00 22.3 30 Norte 39 Norte 0 1017.3 -- 76
2020-11-03 18:00:00 22.5 31 Norte 41 Norte 0 1017.4 -- 73
2020-11-03 17:00:00 22.9 31 Norte 39 Norte 0 1017.8 -- 74
2020-11-03 16:00:00 23.4 32 Norte 41 Norte 0 1018.1 -- 72
2020-11-03 15:00:00 24 30 Norte 39 Norte 0 1018 -- 71
2020-11-03 14:00:00 24.5 27 Norte 35 Norte 0 1018.5 -- 67
2020-11-03 13:00:00 24.5 27 Norte 35 Norte 0 1018.7 -- 68
2020-11-03 12:00:00 24.4 30 Norte 37 Norte 0 1019.1 -- 69
2020-11-03 11:00:00 23.4 26 Norte 42 Nordeste 0.1 1019.5 -- 76
2020-11-03 10:00:00 23.8 24 Norte 33 Norte 0 1019.5 -- 71
2020-11-03 09:00:00 22.8 25 Norte 32 Norte 0 1019.1 -- 73
2020-11-03 08:00:00 22.3 27 Norte 35 Norte 0 1018.2 -- 77
2020-11-03 07:00:00 21.8 23 Noroeste 39 Norte 0 1017.7 -- 71
2020-11-03 06:00:00 21.5 17 Noroeste 39 Norte 0.1 1017.5 -- 74
2020-11-03 05:00:00 22.2 31 Norte 41 Norte 0 1017.6 -- 78
2020-11-03 04:00:00 22.2 26 Norte 39 Norte 0 1017.5 -- 73
2020-11-03 03:00:00 22.2 22 Norte 37 Norte 0 1017.7 -- 70
2020-11-03 02:00:00 22.1 23 Norte 39 Norte 0 1017.8 -- 78
2020-11-03 01:00:00 22.3 29 Norte 37 Norte 0 1018.2 -- 74
2020-11-03 00:00:00 21.8 14 Noroeste 24 Noroeste 0 1018.4 -- 67
2020-11-02 23:00:00 21.9 12 Noroeste 21 Norte 0 1018.6 -- 66
2020-11-02 22:00:00 22.2 13 Noroeste 24 Norte 0 1018.6 -- 63
2020-11-02 21:00:00 22.4 16 Noroeste 28 Norte 0 1018.4 -- 62
2020-11-02 20:00:00 22.5 17 Norte 26 Norte 0 1017.8 -- 73
2020-11-02 19:00:00 22.6 21 Norte 30 Norte 0 1017.5 -- 74
2020-11-02 18:00:00 23 22 Norte 32 Norte 0 1017.2 -- 73
2020-11-02 17:00:00 23.4 26 Norte 35 Nordeste 0 1017.1 -- 72
2020-11-02 16:00:00 23.9 28 Nordeste 37 Nordeste 0 1017.1 -- 68
2020-11-02 15:00:00 24.8 14 Norte 28 Norte 0 1017 -- 59
2020-11-02 14:00:00 24.7 18 Norte 28 Norte 0 1017.3 -- 67
2020-11-02 13:00:00 24.2 14 Norte 22 Norte 0 1018.2 -- 69
2020-11-02 12:00:00 24.4 12 Norte 30 Noroeste 0 1018.7 -- 67
2020-11-02 11:00:00 24.2 17 Norte 26 Norte 0 1018.8 -- 70
2020-11-02 10:00:00 23.8 18 Norte 26 Norte 0 1018.6 -- 72
2020-11-02 09:00:00 22.2 14 Noroeste 22 Norte 0 1017.9 -- 76
2020-11-02 08:00:00 21.1 13 Noroeste 18 Norte 0 1017 -- 59
2020-11-02 07:00:00 21 9 Noroeste 21 Norte 0 1016.6 -- 74
2020-11-02 06:00:00 21.5 12 Norte 18 Norte 0 1016.3 -- 67
2020-11-02 05:00:00 22.2 11 Norte 15 Norte 0 1016 -- 33
2020-11-02 04:00:00 22.2 12 Noroeste 18 Norte 0 1016.2 -- 36
2020-11-02 03:00:00 21.9 12 Noroeste 22 Noroeste 0 1016.6 -- 44
2020-11-02 02:00:00 22.2 11 Noroeste 17 Noroeste 0 1017 -- 38
2020-11-02 01:00:00 22.2 8 Noroeste 17 Noroeste 0 1017.1 -- 41
2020-11-02 00:00:00 22.7 12 Noroeste 18 Noroeste 0 1017.6 -- 54